sensor_id;sensor_type;location;lat;lon;timestamp;P1;durP1;ratioP1;P2;durP2;ratioP2
3085;SDS011;52812;48.960;9.108;2023-02-12T00:00:38;35.93;;;21.53;;
3085;SDS011;52812;48.960;9.108;2023-02-12T00:03:04;39.47;;;21.30;;
3085;SDS011;52812;48.960;9.108;2023-02-12T00:05:30;40.37;;;20.83;;
3085;SDS011;52812;48.960;9.108;2023-02-12T00:07:56;40.70;;;22.30;;
3085;SDS011;52812;48.960;9.108;2023-02-12T00:10:22;37.20;;;21.30;;
3085;SDS011;52812;48.960;9.108;2023-02-12T00:12:47;34.60;;;20.90;;
3085;SDS011;52812;48.960;9.108;2023-02-12T00:15:13;36.73;;;20.40;;
3085;SDS011;52812;48.960;9.108;2023-02-12T00:17:39;36.63;;;21.90;;
3085;SDS011;52812;48.960;9.108;2023-02-12T00:20:05;44.03;;;23.37;;
3085;SDS011;52812;48.960;9.108;2023-02-12T00:22:31;36.93;;;21.13;;
3085;SDS011;52812;48.960;9.108;2023-02-12T00:24:57;39.63;;;21.27;;
3085;SDS011;52812;48.960;9.108;2023-02-12T00:27:23;44.50;;;22.13;;
3085;SDS011;52812;48.960;9.108;2023-02-12T00:29:49;34.07;;;20.67;;
3085;SDS011;52812;48.960;9.108;2023-02-12T00:32:14;48.00;;;23.47;;
3085;SDS011;52812;48.960;9.108;2023-02-12T00:34:43;38.90;;;21.73;;
3085;SDS011;52812;48.960;9.108;2023-02-12T00:37:10;40.23;;;20.90;;
3085;SDS011;52812;48.960;9.108;2023-02-12T00:39:35;43.10;;;23.23;;
3085;SDS011;52812;48.960;9.108;2023-02-12T00:42:02;43.40;;;24.17;;
3085;SDS011;52812;48.960;9.108;2023-02-12T00:44:28;41.50;;;23.63;;
3085;SDS011;52812;48.960;9.108;2023-02-12T00:46:53;41.87;;;22.60;;
3085;SDS011;52812;48.960;9.108;2023-02-12T00:49:19;38.47;;;22.33;;
3085;SDS011;52812;48.960;9.108;2023-02-12T00:51:45;40.93;;;23.67;;
3085;SDS011;52812;48.960;9.108;2023-02-12T00:54:10;39.40;;;24.40;;
3085;SDS011;52812;48.960;9.108;2023-02-12T00:56:36;43.33;;;23.67;;
3085;SDS011;52812;48.960;9.108;2023-02-12T00:59:01;38.37;;;22.33;;
3085;SDS011;52812;48.960;9.108;2023-02-12T01:01:27;46.67;;;23.23;;
3085;SDS011;52812;48.960;9.108;2023-02-12T01:03:52;39.70;;;22.57;;
3085;SDS011;52812;48.960;9.108;2023-02-12T01:06:18;41.23;;;24.70;;
3085;SDS011;52812;48.960;9.108;2023-02-12T01:08:43;46.33;;;23.80;;
3085;SDS011;52812;48.960;9.108;2023-02-12T01:11:10;42.30;;;23.43;;
3085;SDS011;52812;48.960;9.108;2023-02-12T01:13:37;40.67;;;23.03;;
3085;SDS011;52812;48.960;9.108;2023-02-12T01:16:04;41.70;;;23.70;;
3085;SDS011;52812;48.960;9.108;2023-02-12T01:18:36;40.03;;;22.27;;
3085;SDS011;52812;48.960;9.108;2023-02-12T01:21:07;40.00;;;23.00;;
3085;SDS011;52812;48.960;9.108;2023-02-12T01:23:34;43.13;;;22.23;;
3085;SDS011;52812;48.960;9.108;2023-02-12T01:26:00;35.67;;;20.80;;
3085;SDS011;52812;48.960;9.108;2023-02-12T01:28:25;41.60;;;22.60;;
3085;SDS011;52812;48.960;9.108;2023-02-12T01:30:51;39.67;;;22.50;;
3085;SDS011;52812;48.960;9.108;2023-02-12T01:33:16;39.13;;;22.57;;
3085;SDS011;52812;48.960;9.108;2023-02-12T01:35:42;39.43;;;22.33;;
3085;SDS011;52812;48.960;9.108;2023-02-12T01:38:07;33.57;;;21.50;;
3085;SDS011;52812;48.960;9.108;2023-02-12T01:40:33;38.77;;;21.77;;
3085;SDS011;52812;48.960;9.108;2023-02-12T01:43:01;38.50;;;22.80;;
3085;SDS011;52812;48.960;9.108;2023-02-12T01:47:52;38.70;;;22.67;;
3085;SDS011;52812;48.960;9.108;2023-02-12T01:50:18;37.63;;;22.70;;
3085;SDS011;52812;48.960;9.108;2023-02-12T01:52:52;36.10;;;21.67;;
3085;SDS011;52812;48.960;9.108;2023-02-12T01:55:20;40.57;;;21.57;;
3085;SDS011;52812;48.960;9.108;2023-02-12T01:57:48;36.83;;;20.80;;
3085;SDS011;52812;48.960;9.108;2023-02-12T02:00:23;36.27;;;20.53;;
3085;SDS011;52812;48.960;9.108;2023-02-12T02:02:54;39.07;;;21.57;;
3085;SDS011;52812;48.960;9.108;2023-02-12T02:05:24;35.03;;;20.83;;
3085;SDS011;52812;48.960;9.108;2023-02-12T02:07:59;36.73;;;20.83;;
3085;SDS011;52812;48.960;9.108;2023-02-12T02:10:24;37.90;;;22.03;;
3085;SDS011;52812;48.960;9.108;2023-02-12T02:12:50;36.50;;;21.23;;
3085;SDS011;52812;48.960;9.108;2023-02-12T02:15:34;34.80;;;20.60;;
3085;SDS011;52812;48.960;9.108;2023-02-12T02:18:06;37.87;;;21.53;;
3085;SDS011;52812;48.960;9.108;2023-02-12T02:23:50;38.53;;;21.50;;
3085;SDS011;52812;48.960;9.108;2023-02-12T02:26:21;36.93;;;19.93;;
3085;SDS011;52812;48.960;9.108;2023-02-12T02:32:23;36.73;;;20.30;;
3085;SDS011;52812;48.960;9.108;2023-02-12T02:38:05;42.70;;;22.13;;
3085;SDS011;52812;48.960;9.108;2023-02-12T02:40:46;32.80;;;20.83;;
3085;SDS011;52812;48.960;9.108;2023-02-12T02:43:19;37.37;;;21.03;;
3085;SDS011;52812;48.960;9.108;2023-02-12T02:46:04;33.33;;;20.30;;
3085;SDS011;52812;48.960;9.108;2023-02-12T02:48:41;35.60;;;19.73;;
3085;SDS011;52812;48.960;9.108;2023-02-12T02:51:14;38.67;;;20.70;;
3085;SDS011;52812;48.960;9.108;2023-02-12T02:53:47;33.80;;;20.97;;
3085;SDS011;52812;48.960;9.108;2023-02-12T02:56:18;31.80;;;19.73;;
3085;SDS011;52812;48.960;9.108;2023-02-12T02:58:57;36.33;;;21.00;;
3085;SDS011;52812;48.960;9.108;2023-02-12T03:01:28;39.47;;;21.47;;
3085;SDS011;52812;48.960;9.108;2023-02-12T03:04:06;43.10;;;21.93;;
3085;SDS011;52812;48.960;9.108;2023-02-12T03:06:40;40.03;;;21.97;;
3085;SDS011;52812;48.960;9.108;2023-02-12T03:09:15;43.03;;;22.97;;
3085;SDS011;52812;48.960;9.108;2023-02-12T03:11:51;42.53;;;23.30;;
3085;SDS011;52812;48.960;9.108;2023-02-12T03:17:09;42.40;;;22.93;;
3085;SDS011;52812;48.960;9.108;2023-02-12T03:19:41;44.10;;;23.63;;
3085;SDS011;52812;48.960;9.108;2023-02-12T03:22:16;42.30;;;23.47;;
3085;SDS011;52812;48.960;9.108;2023-02-12T03:24:48;37.20;;;22.07;;
3085;SDS011;52812;48.960;9.108;2023-02-12T03:27:19;40.03;;;21.73;;
3085;SDS011;52812;48.960;9.108;2023-02-12T03:29:53;40.90;;;22.13;;
3085;SDS011;52812;48.960;9.108;2023-02-12T03:32:23;37.70;;;21.50;;
3085;SDS011;52812;48.960;9.108;2023-02-12T03:37:30;34.10;;;20.37;;
3085;SDS011;52812;48.960;9.108;2023-02-12T03:50:39;38.77;;;21.37;;
3085;SDS011;52812;48.960;9.108;2023-02-12T03:53:10;41.53;;;21.50;;
3085;SDS011;52812;48.960;9.108;2023-02-12T03:55:37;37.20;;;22.47;;
3085;SDS011;52812;48.960;9.108;2023-02-12T03:58:06;37.07;;;20.50;;
3085;SDS011;52812;48.960;9.108;2023-02-12T04:00:35;42.83;;;22.10;;
3085;SDS011;52812;48.960;9.108;2023-02-12T04:03:02;40.37;;;21.37;;
3085;SDS011;52812;48.960;9.108;2023-02-12T04:05:28;40.80;;;21.83;;
3085;SDS011;52812;48.960;9.108;2023-02-12T04:07:54;35.47;;;20.67;;
3085;SDS011;52812;48.960;9.108;2023-02-12T04:10:24;34.13;;;19.97;;
3085;SDS011;52812;48.960;9.108;2023-02-12T04:13:10;35.50;;;20.07;;
3085;SDS011;52812;48.960;9.108;2023-02-12T04:18:44;39.20;;;22.80;;
3085;SDS011;52812;48.960;9.108;2023-02-12T04:21:19;43.80;;;22.50;;
3085;SDS011;52812;48.960;9.108;2023-02-12T04:31:55;41.00;;;22.23;;
3085;SDS011;52812;48.960;9.108;2023-02-12T04:37:18;37.13;;;21.90;;
3085;SDS011;52812;48.960;9.108;2023-02-12T04:39:46;38.53;;;21.43;;
3085;SDS011;52812;48.960;9.108;2023-02-12T04:42:13;35.80;;;20.07;;
3085;SDS011;52812;48.960;9.108;2023-02-12T04:44:41;39.33;;;21.33;;
3085;SDS011;52812;48.960;9.108;2023-02-12T04:47:12;40.10;;;20.60;;
3085;SDS011;52812;48.960;9.108;2023-02-12T04:49:38;40.67;;;21.30;;
3085;SDS011;52812;48.960;9.108;2023-02-12T04:52:04;37.40;;;21.70;;
3085;SDS011;52812;48.960;9.108;2023-02-12T04:54:30;41.47;;;23.50;;
3085;SDS011;52812;48.960;9.108;2023-02-12T04:56:55;38.07;;;22.03;;
3085;SDS011;52812;48.960;9.108;2023-02-12T04:59:21;38.33;;;22.00;;
3085;SDS011;52812;48.960;9.108;2023-02-12T05:01:47;38.93;;;21.77;;
3085;SDS011;52812;48.960;9.108;2023-02-12T05:04:13;42.20;;;22.70;;
3085;SDS011;52812;48.960;9.108;2023-02-12T05:06:40;44.73;;;23.50;;
3085;SDS011;52812;48.960;9.108;2023-02-12T05:09:06;45.17;;;23.50;;
3085;SDS011;52812;48.960;9.108;2023-02-12T05:11:34;43.60;;;22.60;;
3085;SDS011;52812;48.960;9.108;2023-02-12T05:13:59;44.63;;;23.70;;
3085;SDS011;52812;48.960;9.108;2023-02-12T05:16:25;41.47;;;22.03;;
3085;SDS011;52812;48.960;9.108;2023-02-12T05:18:51;46.03;;;24.20;;
3085;SDS011;52812;48.960;9.108;2023-02-12T05:21:17;41.70;;;23.00;;
3085;SDS011;52812;48.960;9.108;2023-02-12T05:23:42;41.10;;;22.83;;
3085;SDS011;52812;48.960;9.108;2023-02-12T05:26:15;41.50;;;23.20;;
3085;SDS011;52812;48.960;9.108;2023-02-12T05:28:42;43.30;;;22.73;;
3085;SDS011;52812;48.960;9.108;2023-02-12T05:31:08;39.20;;;21.90;;
3085;SDS011;52812;48.960;9.108;2023-02-12T05:33:35;38.93;;;21.80;;
3085;SDS011;52812;48.960;9.108;2023-02-12T05:36:04;41.63;;;22.27;;
3085;SDS011;52812;48.960;9.108;2023-02-12T05:38:31;44.80;;;22.40;;
3085;SDS011;52812;48.960;9.108;2023-02-12T05:43:43;42.07;;;23.80;;
3085;SDS011;52812;48.960;9.108;2023-02-12T05:46:09;35.23;;;22.10;;
3085;SDS011;52812;48.960;9.108;2023-02-12T05:48:36;38.83;;;21.70;;
3085;SDS011;52812;48.960;9.108;2023-02-12T05:53:39;45.03;;;23.60;;
3085;SDS011;52812;48.960;9.108;2023-02-12T05:56:11;36.40;;;22.47;;
3085;SDS011;52812;48.960;9.108;2023-02-12T05:58:38;39.73;;;22.87;;
3085;SDS011;52812;48.960;9.108;2023-02-12T06:01:12;47.93;;;22.07;;
3085;SDS011;52812;48.960;9.108;2023-02-12T06:03:40;38.80;;;22.17;;
3085;SDS011;52812;48.960;9.108;2023-02-12T06:06:06;39.37;;;21.93;;
3085;SDS011;52812;48.960;9.108;2023-02-12T06:08:32;45.60;;;22.60;;
3085;SDS011;52812;48.960;9.108;2023-02-12T06:11:02;43.07;;;22.97;;
3085;SDS011;52812;48.960;9.108;2023-02-12T06:13:29;43.93;;;22.40;;
3085;SDS011;52812;48.960;9.108;2023-02-12T06:15:56;43.40;;;22.93;;
3085;SDS011;52812;48.960;9.108;2023-02-12T06:18:22;43.03;;;22.40;;
3085;SDS011;52812;48.960;9.108;2023-02-12T06:20:48;44.17;;;22.43;;
3085;SDS011;52812;48.960;9.108;2023-02-12T06:23:14;44.85;;;25.42;;
3085;SDS011;52812;48.960;9.108;2023-02-12T06:25:40;42.47;;;24.53;;
3085;SDS011;52812;48.960;9.108;2023-02-12T06:28:05;37.80;;;22.30;;
3085;SDS011;52812;48.960;9.108;2023-02-12T06:30:32;39.80;;;23.50;;
3085;SDS011;52812;48.960;9.108;2023-02-12T06:32:59;42.60;;;23.23;;
3085;SDS011;52812;48.960;9.108;2023-02-12T06:35:25;38.00;;;21.73;;
3085;SDS011;52812;48.960;9.108;2023-02-12T06:37:51;43.60;;;23.03;;
3085;SDS011;52812;48.960;9.108;2023-02-12T06:40:17;44.07;;;22.17;;
3085;SDS011;52812;48.960;9.108;2023-02-12T06:42:43;42.13;;;23.33;;
3085;SDS011;52812;48.960;9.108;2023-02-12T06:45:08;40.77;;;22.30;;
3085;SDS011;52812;48.960;9.108;2023-02-12T06:47:34;45.37;;;23.77;;
3085;SDS011;52812;48.960;9.108;2023-02-12T06:50:00;39.33;;;21.90;;
3085;SDS011;52812;48.960;9.108;2023-02-12T06:52:26;41.67;;;21.77;;
3085;SDS011;52812;48.960;9.108;2023-02-12T06:54:51;40.40;;;22.10;;
3085;SDS011;52812;48.960;9.108;2023-02-12T06:57:17;42.67;;;21.97;;
3085;SDS011;52812;48.960;9.108;2023-02-12T06:59:43;43.07;;;23.23;;
3085;SDS011;52812;48.960;9.108;2023-02-12T07:02:09;41.53;;;22.70;;
3085;SDS011;52812;48.960;9.108;2023-02-12T07:04:36;39.30;;;22.43;;
3085;SDS011;52812;48.960;9.108;2023-02-12T07:07:03;38.13;;;21.80;;
3085;SDS011;52812;48.960;9.108;2023-02-12T07:09:29;37.90;;;21.20;;
3085;SDS011;52812;48.960;9.108;2023-02-12T07:11:56;40.50;;;21.73;;
3085;SDS011;52812;48.960;9.108;2023-02-12T07:14:23;40.57;;;23.73;;
3085;SDS011;52812;48.960;9.108;2023-02-12T07:16:50;40.63;;;21.77;;
3085;SDS011;52812;48.960;9.108;2023-02-12T07:19:16;41.73;;;22.23;;
3085;SDS011;52812;48.960;9.108;2023-02-12T07:21:42;39.50;;;22.77;;
3085;SDS011;52812;48.960;9.108;2023-02-12T07:24:09;39.47;;;22.43;;
3085;SDS011;52812;48.960;9.108;2023-02-12T07:26:38;39.60;;;21.17;;
3085;SDS011;52812;48.960;9.108;2023-02-12T07:29:05;43.43;;;22.70;;
3085;SDS011;52812;48.960;9.108;2023-02-12T07:31:30;40.00;;;22.10;;
3085;SDS011;52812;48.960;9.108;2023-02-12T07:33:57;37.57;;;21.17;;
3085;SDS011;52812;48.960;9.108;2023-02-12T07:36:25;39.90;;;22.33;;
3085;SDS011;52812;48.960;9.108;2023-02-12T07:38:53;45.83;;;25.90;;
3085;SDS011;52812;48.960;9.108;2023-02-12T07:41:20;47.53;;;26.33;;
3085;SDS011;52812;48.960;9.108;2023-02-12T07:44:12;52.90;;;28.47;;
3085;SDS011;52812;48.960;9.108;2023-02-12T07:46:39;53.00;;;28.43;;
3085;SDS011;52812;48.960;9.108;2023-02-12T07:49:05;50.97;;;28.07;;
3085;SDS011;52812;48.960;9.108;2023-02-12T07:51:33;45.37;;;25.70;;
3085;SDS011;52812;48.960;9.108;2023-02-12T07:53:59;43.53;;;23.67;;
3085;SDS011;52812;48.960;9.108;2023-02-12T07:56:26;39.87;;;23.00;;
3085;SDS011;52812;48.960;9.108;2023-02-12T07:58:55;42.47;;;24.63;;
3085;SDS011;52812;48.960;9.108;2023-02-12T08:03:48;42.60;;;23.03;;
3085;SDS011;52812;48.960;9.108;2023-02-12T08:06:16;39.17;;;21.77;;
3085;SDS011;52812;48.960;9.108;2023-02-12T08:08:47;37.80;;;22.23;;
3085;SDS011;52812;48.960;9.108;2023-02-12T08:11:14;40.10;;;22.17;;
3085;SDS011;52812;48.960;9.108;2023-02-12T08:13:42;35.83;;;21.40;;
3085;SDS011;52812;48.960;9.108;2023-02-12T08:16:08;38.30;;;22.20;;
3085;SDS011;52812;48.960;9.108;2023-02-12T08:18:36;39.33;;;22.07;;
3085;SDS011;52812;48.960;9.108;2023-02-12T08:21:09;37.47;;;21.90;;
3085;SDS011;52812;48.960;9.108;2023-02-12T08:23:36;37.57;;;22.20;;
3085;SDS011;52812;48.960;9.108;2023-02-12T08:26:12;37.80;;;22.20;;
3085;SDS011;52812;48.960;9.108;2023-02-12T08:28:42;39.17;;;22.40;;
3085;SDS011;52812;48.960;9.108;2023-02-12T08:31:11;36.23;;;21.90;;
3085;SDS011;52812;48.960;9.108;2023-02-12T08:33:38;50.50;;;24.53;;
3085;SDS011;52812;48.960;9.108;2023-02-12T08:36:08;40.40;;;23.20;;
3085;SDS011;52812;48.960;9.108;2023-02-12T08:38:36;40.10;;;22.37;;
3085;SDS011;52812;48.960;9.108;2023-02-12T08:41:06;38.23;;;22.90;;
3085;SDS011;52812;48.960;9.108;2023-02-12T08:43:37;42.07;;;23.70;;
3085;SDS011;52812;48.960;9.108;2023-02-12T08:46:13;45.13;;;25.00;;
3085;SDS011;52812;48.960;9.108;2023-02-12T08:48:55;43.67;;;24.30;;
3085;SDS011;52812;48.960;9.108;2023-02-12T08:51:32;42.80;;;23.70;;
3085;SDS011;52812;48.960;9.108;2023-02-12T08:54:03;41.10;;;24.60;;
3085;SDS011;52812;48.960;9.108;2023-02-12T08:56:31;45.47;;;24.67;;
3085;SDS011;52812;48.960;9.108;2023-02-12T08:58:59;44.10;;;24.47;;
3085;SDS011;52812;48.960;9.108;2023-02-12T09:01:28;43.63;;;22.93;;
3085;SDS011;52812;48.960;9.108;2023-02-12T09:03:55;46.63;;;24.33;;
3085;SDS011;52812;48.960;9.108;2023-02-12T09:06:21;43.37;;;23.13;;
3085;SDS011;52812;48.960;9.108;2023-02-12T09:08:48;45.23;;;23.57;;
3085;SDS011;52812;48.960;9.108;2023-02-12T09:11:16;50.00;;;23.63;;
3085;SDS011;52812;48.960;9.108;2023-02-12T09:13:59;46.43;;;23.40;;
3085;SDS011;52812;48.960;9.108;2023-02-12T09:16:27;51.27;;;24.87;;
3085;SDS011;52812;48.960;9.108;2023-02-12T09:18:53;44.73;;;23.67;;
3085;SDS011;52812;48.960;9.108;2023-02-12T09:21:20;42.37;;;22.87;;
3085;SDS011;52812;48.960;9.108;2023-02-12T09:23:46;43.33;;;23.17;;
3085;SDS011;52812;48.960;9.108;2023-02-12T09:26:14;44.17;;;23.97;;
3085;SDS011;52812;48.960;9.108;2023-02-12T09:28:42;45.43;;;22.47;;
3085;SDS011;52812;48.960;9.108;2023-02-12T09:31:11;47.87;;;22.97;;
3085;SDS011;52812;48.960;9.108;2023-02-12T09:33:39;44.87;;;21.60;;
3085;SDS011;52812;48.960;9.108;2023-02-12T09:36:06;40.43;;;21.10;;
3085;SDS011;52812;48.960;9.108;2023-02-12T09:38:34;40.43;;;21.13;;
3085;SDS011;52812;48.960;9.108;2023-02-12T09:43:41;36.73;;;20.00;;
3085;SDS011;52812;48.960;9.108;2023-02-12T09:46:27;38.93;;;21.30;;
3085;SDS011;52812;48.960;9.108;2023-02-12T09:49:11;42.70;;;21.30;;
3085;SDS011;52812;48.960;9.108;2023-02-12T09:51:44;35.20;;;19.30;;
3085;SDS011;52812;48.960;9.108;2023-02-12T09:54:16;41.30;;;21.83;;
3085;SDS011;52812;48.960;9.108;2023-02-12T09:56:51;39.80;;;20.37;;
3085;SDS011;52812;48.960;9.108;2023-02-12T09:59:25;35.50;;;19.77;;
3085;SDS011;52812;48.960;9.108;2023-02-12T10:02:13;36.90;;;20.30;;
3085;SDS011;52812;48.960;9.108;2023-02-12T10:04:41;34.23;;;19.70;;
3085;SDS011;52812;48.960;9.108;2023-02-12T10:10:18;34.77;;;19.93;;
3085;SDS011;52812;48.960;9.108;2023-02-12T10:13:13;36.17;;;19.20;;
3085;SDS011;52812;48.960;9.108;2023-02-12T10:26:47;31.37;;;17.30;;
3085;SDS011;52812;48.960;9.108;2023-02-12T10:29:27;30.53;;;17.07;;
3085;SDS011;52812;48.960;9.108;2023-02-12T10:32:02;31.10;;;16.70;;
3085;SDS011;52812;48.960;9.108;2023-02-12T10:34:33;31.27;;;17.03;;
3085;SDS011;52812;48.960;9.108;2023-02-12T10:37:08;32.80;;;17.10;;
3085;SDS011;52812;48.960;9.108;2023-02-12T10:39:47;28.13;;;15.80;;
3085;SDS011;52812;48.960;9.108;2023-02-12T10:42:20;28.23;;;16.27;;
3085;SDS011;52812;48.960;9.108;2023-02-12T10:44:57;29.50;;;15.20;;
3085;SDS011;52812;48.960;9.108;2023-02-12T10:47:23;29.40;;;16.73;;
3085;SDS011;52812;48.960;9.108;2023-02-12T10:49:53;22.70;;;13.33;;
3085;SDS011;52812;48.960;9.108;2023-02-12T10:55:30;19.63;;;12.50;;
3085;SDS011;52812;48.960;9.108;2023-02-12T10:57:58;19.60;;;11.30;;
3085;SDS011;52812;48.960;9.108;2023-02-12T11:00:26;15.70;;;9.63;;
3085;SDS011;52812;48.960;9.108;2023-02-12T11:05:29;17.10;;;9.00;;
3085;SDS011;52812;48.960;9.108;2023-02-12T11:07:56;16.80;;;10.10;;
3085;SDS011;52812;48.960;9.108;2023-02-12T11:10:34;18.50;;;10.60;;
3085;SDS011;52812;48.960;9.108;2023-02-12T11:13:02;16.90;;;9.47;;
3085;SDS011;52812;48.960;9.108;2023-02-12T11:15:45;17.67;;;10.00;;
3085;SDS011;52812;48.960;9.108;2023-02-12T11:18:25;17.73;;;9.83;;
3085;SDS011;52812;48.960;9.108;2023-02-12T11:20:59;19.17;;;10.20;;
3085;SDS011;52812;48.960;9.108;2023-02-12T11:28:51;17.57;;;8.30;;
3085;SDS011;52812;48.960;9.108;2023-02-12T11:31:21;12.93;;;7.80;;
3085;SDS011;52812;48.960;9.108;2023-02-12T11:36:45;12.47;;;7.30;;
3085;SDS011;52812;48.960;9.108;2023-02-12T11:39:18;10.80;;;6.70;;
3085;SDS011;52812;48.960;9.108;2023-02-12T11:41:51;11.47;;;5.97;;
3085;SDS011;52812;48.960;9.108;2023-02-12T11:47:17;9.40;;;5.17;;
3085;SDS011;52812;48.960;9.108;2023-02-12T11:52:39;8.20;;;5.37;;
3085;SDS011;52812;48.960;9.108;2023-02-12T11:55:09;8.33;;;4.83;;
3085;SDS011;52812;48.960;9.108;2023-02-12T11:57:47;7.90;;;4.60;;
3085;SDS011;52812;48.960;9.108;2023-02-12T12:00:24;8.13;;;4.60;;
3085;SDS011;52812;48.960;9.108;2023-02-12T12:05:30;7.57;;;4.77;;
3085;SDS011;52812;48.960;9.108;2023-02-12T12:08:06;9.00;;;5.27;;
3085;SDS011;52812;48.960;9.108;2023-02-12T12:10:46;7.43;;;4.20;;
3085;SDS011;52812;48.960;9.108;2023-02-12T12:13:41;7.83;;;3.90;;
3085;SDS011;52812;48.960;9.108;2023-02-12T12:16:18;6.10;;;4.30;;
3085;SDS011;52812;48.960;9.108;2023-02-12T12:19:27;7.57;;;3.80;;
3085;SDS011;52812;48.960;9.108;2023-02-12T12:22:35;6.17;;;3.67;;
3085;SDS011;52812;48.960;9.108;2023-02-12T12:25:41;5.47;;;3.80;;
3085;SDS011;52812;48.960;9.108;2023-02-12T12:39:02;6.10;;;4.17;;
3085;SDS011;52812;48.960;9.108;2023-02-12T12:41:53;6.40;;;3.90;;
3085;SDS011;52812;48.960;9.108;2023-02-12T13:03:21;5.83;;;4.30;;
3085;SDS011;52812;48.960;9.108;2023-02-12T13:13:51;7.90;;;4.00;;
3085;SDS011;52812;48.960;9.108;2023-02-12T13:19:13;7.23;;;5.00;;
3085;SDS011;52812;48.960;9.108;2023-02-12T13:27:21;6.23;;;4.33;;
3085;SDS011;52812;48.960;9.108;2023-02-12T13:29:57;7.57;;;4.50;;
3085;SDS011;52812;48.960;9.108;2023-02-12T13:35:26;7.80;;;4.10;;
3085;SDS011;52812;48.960;9.108;2023-02-12T13:37:54;5.33;;;3.70;;
3085;SDS011;52812;48.960;9.108;2023-02-12T13:40:25;5.57;;;4.00;;
3085;SDS011;52812;48.960;9.108;2023-02-12T13:46:07;4.13;;;3.13;;
3085;SDS011;52812;48.960;9.108;2023-02-12T14:02:01;4.80;;;3.53;;
3085;SDS011;52812;48.960;9.108;2023-02-12T14:04:56;6.53;;;4.03;;
3085;SDS011;52812;48.960;9.108;2023-02-12T14:07:44;6.30;;;3.70;;
3085;SDS011;52812;48.960;9.108;2023-02-12T14:10:18;4.77;;;3.77;;
3085;SDS011;52812;48.960;9.108;2023-02-12T14:12:44;5.07;;;3.70;;
3085;SDS011;52812;48.960;9.108;2023-02-12T14:15:31;4.90;;;4.20;;
3085;SDS011;52812;48.960;9.108;2023-02-12T14:21:34;5.83;;;4.23;;
3085;SDS011;52812;48.960;9.108;2023-02-12T14:23:35;4.93;;;3.90;;
3085;SDS011;52812;48.960;9.108;2023-02-12T14:33:49;6.93;;;4.57;;
3085;SDS011;52812;48.960;9.108;2023-02-12T14:36:17;7.00;;;4.63;;
3085;SDS011;52812;48.960;9.108;2023-02-12T14:41:23;7.27;;;4.63;;
3085;SDS011;52812;48.960;9.108;2023-02-12T14:49:37;9.03;;;5.60;;
3085;SDS011;52812;48.960;9.108;2023-02-12T14:52:17;7.10;;;5.00;;
3085;SDS011;52812;48.960;9.108;2023-02-12T14:57:29;8.80;;;5.37;;
3085;SDS011;52812;48.960;9.108;2023-02-12T15:02:42;8.40;;;4.83;;
3085;SDS011;52812;48.960;9.108;2023-02-12T15:05:19;7.43;;;4.83;;
3085;SDS011;52812;48.960;9.108;2023-02-12T15:13:43;7.77;;;4.87;;
3085;SDS011;52812;48.960;9.108;2023-02-12T15:16:26;5.67;;;3.87;;
3085;SDS011;52812;48.960;9.108;2023-02-12T15:22:01;9.77;;;4.87;;
3085;SDS011;52812;48.960;9.108;2023-02-12T15:24:27;7.20;;;4.40;;
3085;SDS011;52812;48.960;9.108;2023-02-12T15:26:53;10.33;;;5.03;;
3085;SDS011;52812;48.960;9.108;2023-02-12T15:29:33;6.83;;;4.60;;
3085;SDS011;52812;48.960;9.108;2023-02-12T15:32:23;7.13;;;4.53;;
3085;SDS011;52812;48.960;9.108;2023-02-12T15:34:51;6.73;;;4.73;;
3085;SDS011;52812;48.960;9.108;2023-02-12T15:37:25;9.50;;;5.17;;
3085;SDS011;52812;48.960;9.108;2023-02-12T15:39:57;6.53;;;4.30;;
3085;SDS011;52812;48.960;9.108;2023-02-12T15:47:38;8.10;;;4.70;;
3085;SDS011;52812;48.960;9.108;2023-02-12T15:50:05;8.80;;;4.80;;
3085;SDS011;52812;48.960;9.108;2023-02-12T15:52:37;6.20;;;4.40;;
3085;SDS011;52812;48.960;9.108;2023-02-12T15:55:11;10.60;;;4.77;;
3085;SDS011;52812;48.960;9.108;2023-02-12T15:57:40;6.67;;;4.70;;
3085;SDS011;52812;48.960;9.108;2023-02-12T16:00:09;6.40;;;4.20;;
3085;SDS011;52812;48.960;9.108;2023-02-12T16:02:56;6.97;;;4.83;;
3085;SDS011;52812;48.960;9.108;2023-02-12T16:05:22;8.57;;;4.97;;
3085;SDS011;52812;48.960;9.108;2023-02-12T16:07:49;6.73;;;4.77;;
3085;SDS011;52812;48.960;9.108;2023-02-12T16:10:16;7.80;;;5.00;;
3085;SDS011;52812;48.960;9.108;2023-02-12T16:12:43;7.70;;;4.57;;
3085;SDS011;52812;48.960;9.108;2023-02-12T16:15:22;6.63;;;4.90;;
3085;SDS011;52812;48.960;9.108;2023-02-12T16:17:52;9.67;;;5.50;;
3085;SDS011;52812;48.960;9.108;2023-02-12T16:20:22;11.17;;;5.80;;
3085;SDS011;52812;48.960;9.108;2023-02-12T16:22:51;8.03;;;4.70;;
3085;SDS011;52812;48.960;9.108;2023-02-12T16:31:05;6.30;;;4.70;;
3085;SDS011;52812;48.960;9.108;2023-02-12T16:36:13;7.73;;;4.33;;
3085;SDS011;52812;48.960;9.108;2023-02-12T16:46:25;8.80;;;5.40;;
3085;SDS011;52812;48.960;9.108;2023-02-12T16:48:53;6.97;;;5.13;;
3085;SDS011;52812;48.960;9.108;2023-02-12T16:51:31;7.70;;;5.27;;
3085;SDS011;52812;48.960;9.108;2023-02-12T16:54:00;8.80;;;5.90;;
3085;SDS011;52812;48.960;9.108;2023-02-12T16:56:27;8.10;;;6.07;;
3085;SDS011;52812;48.960;9.108;2023-02-12T16:58:58;9.20;;;5.90;;
3085;SDS011;52812;48.960;9.108;2023-02-12T17:01:26;9.93;;;6.10;;
3085;SDS011;52812;48.960;9.108;2023-02-12T17:03:58;8.47;;;5.73;;
3085;SDS011;52812;48.960;9.108;2023-02-12T17:06:26;10.50;;;6.13;;
3085;SDS011;52812;48.960;9.108;2023-02-12T17:08:54;10.37;;;6.43;;
3085;SDS011;52812;48.960;9.108;2023-02-12T17:11:21;11.50;;;6.70;;
3085;SDS011;52812;48.960;9.108;2023-02-12T17:13:48;20.97;;;11.77;;
3085;SDS011;52812;48.960;9.108;2023-02-12T17:16:17;19.70;;;11.87;;
3085;SDS011;52812;48.960;9.108;2023-02-12T17:18:43;19.93;;;11.53;;
3085;SDS011;52812;48.960;9.108;2023-02-12T17:23:46;14.50;;;7.77;;
3085;SDS011;52812;48.960;9.108;2023-02-12T17:26:12;11.90;;;7.50;;
3085;SDS011;52812;48.960;9.108;2023-02-12T17:28:38;11.37;;;7.23;;
3085;SDS011;52812;48.960;9.108;2023-02-12T17:31:05;12.10;;;7.30;;
3085;SDS011;52812;48.960;9.108;2023-02-12T17:33:34;15.73;;;7.70;;
3085;SDS011;52812;48.960;9.108;2023-02-12T17:36:00;14.13;;;8.23;;
3085;SDS011;52812;48.960;9.108;2023-02-12T17:38:26;12.10;;;7.93;;
3085;SDS011;52812;48.960;9.108;2023-02-12T17:40:51;12.00;;;7.83;;
3085;SDS011;52812;48.960;9.108;2023-02-12T17:43:17;16.57;;;9.70;;
3085;SDS011;52812;48.960;9.108;2023-02-12T17:45:43;13.93;;;8.20;;
3085;SDS011;52812;48.960;9.108;2023-02-12T17:48:12;22.60;;;12.93;;
3085;SDS011;52812;48.960;9.108;2023-02-12T17:50:40;21.17;;;12.80;;
3085;SDS011;52812;48.960;9.108;2023-02-12T17:53:06;17.30;;;9.63;;
3085;SDS011;52812;48.960;9.108;2023-02-12T17:55:32;14.33;;;9.03;;
3085;SDS011;52812;48.960;9.108;2023-02-12T17:58:05;11.90;;;7.73;;
3085;SDS011;52812;48.960;9.108;2023-02-12T18:00:31;10.33;;;7.47;;
3085;SDS011;52812;48.960;9.108;2023-02-12T18:02:57;11.40;;;7.10;;
3085;SDS011;52812;48.960;9.108;2023-02-12T18:05:22;10.70;;;7.00;;
3085;SDS011;52812;48.960;9.108;2023-02-12T18:07:48;12.20;;;7.30;;
3085;SDS011;52812;48.960;9.108;2023-02-12T18:10:14;11.10;;;7.27;;
3085;SDS011;52812;48.960;9.108;2023-02-12T18:12:42;12.20;;;7.20;;
3085;SDS011;52812;48.960;9.108;2023-02-12T18:15:08;11.37;;;7.80;;
3085;SDS011;52812;48.960;9.108;2023-02-12T18:17:35;11.70;;;8.10;;
3085;SDS011;52812;48.960;9.108;2023-02-12T18:20:01;14.07;;;7.60;;
3085;SDS011;52812;48.960;9.108;2023-02-12T18:22:27;14.57;;;8.73;;
3085;SDS011;52812;48.960;9.108;2023-02-12T18:24:53;16.07;;;8.23;;
3085;SDS011;52812;48.960;9.108;2023-02-12T18:27:19;17.13;;;9.10;;
3085;SDS011;52812;48.960;9.108;2023-02-12T18:29:45;14.30;;;8.60;;